ROT703E LROP-LRIA
Flight info
| Callsign | ROT703E |
|---|---|
| Flight time | 0h 42m |
| Altitude | 31000 |
| Route | DENAK DCT GUXVA/N0285F090 T74 ABOLO |
| Aircraft | B737/M-SDE2E3FGHIRWXY/LB1 |
Departure
| Time | 2026-05-06 08:59 |
|---|---|
| Airport | Bucharest Henri Coandă International Airport (LROP) |
Arrival
| Time | 2026-05-06 09:41 |
|---|---|
| Airport | Iaşi International Airport (LRIA) |
| Time | Latitude | Longitude | Altitude | Speed | Heading |
|---|---|---|---|---|---|
| 2026-05-06 08:35 | 44.57140 | 26.08113 | 322 ft | 0 kts | 174° |
| 2026-05-06 08:50 | 44.57150 | 26.08111 | 319 ft | 4 kts | 174° |
| 2026-05-06 08:50 | 44.57177 | 26.08107 | 319 ft | 4 kts | 174° |
| 2026-05-06 08:51 | 44.57197 | 26.08104 | 320 ft | 4 kts | 142° |
| 2026-05-06 08:51 | 44.57203 | 26.08079 | 319 ft | 4 kts | 84° |
| 2026-05-06 08:51 | 44.57201 | 26.08057 | 322 ft | 0 kts | 84° |
| 2026-05-06 08:55 | 44.57201 | 26.08064 | 322 ft | 3 kts | 84° |
| 2026-05-06 08:55 | 44.57204 | 26.08101 | 322 ft | 9 kts | 84° |
| 2026-05-06 08:55 | 44.57213 | 26.08225 | 322 ft | 15 kts | 84° |
| 2026-05-06 08:55 | 44.57224 | 26.08373 | 320 ft | 15 kts | 84° |
| 2026-05-06 08:56 | 44.57238 | 26.08486 | 320 ft | 8 kts | 54° |
| 2026-05-06 08:56 | 44.57293 | 26.08496 | 321 ft | 8 kts | 354° |
| 2026-05-06 08:56 | 44.57356 | 26.08487 | 322 ft | 12 kts | 354° |
| 2026-05-06 08:56 | 44.57466 | 26.08471 | 322 ft | 18 kts | 354° |
| 2026-05-06 08:57 | 44.57545 | 26.08460 | 320 ft | 7 kts | 354° |
| 2026-05-06 08:57 | 44.57550 | 26.08460 | 321 ft | 0 kts | 354° |
| 2026-05-06 08:57 | 44.57556 | 26.08459 | 322 ft | 3 kts | 354° |
| 2026-05-06 08:58 | 44.57619 | 26.08450 | 321 ft | 15 kts | 355° |
| 2026-05-06 08:58 | 44.57671 | 26.08549 | 323 ft | 14 kts | 83° |
| 2026-05-06 08:58 | 44.57696 | 26.08890 | 321 ft | 77 kts | 84° |
| 2026-05-06 08:58 | 44.57789 | 26.10027 | 351 ft | 152 kts | 84° |
| 2026-05-06 08:59 | 44.57916 | 26.11677 | 936 ft | 179 kts | 85° |
| 2026-05-06 08:59 | 44.58055 | 26.13451 | 1944 ft | 189 kts | 87° |
| 2026-05-06 08:59 | 44.58179 | 26.15262 | 3126 ft | 188 kts | 85° |
| 2026-05-06 08:59 | 44.58310 | 26.17126 | 4139 ft | 195 kts | 84° |
| 2026-05-06 09:00 | 44.58443 | 26.19024 | 5147 ft | 198 kts | 83° |
| 2026-05-06 09:00 | 44.58584 | 26.20972 | 6007 ft | 210 kts | 82° |
| 2026-05-06 09:00 | 44.58749 | 26.23165 | 6336 ft | 242 kts | 82° |
| 2026-05-06 09:00 | 44.58934 | 26.25580 | 7027 ft | 253 kts | 82° |
| 2026-05-06 09:01 | 44.59148 | 26.28044 | 7938 ft | 256 kts | 75° |
| 2026-05-06 09:01 | 44.60041 | 26.30126 | 8934 ft | 251 kts | 39° |
| 2026-05-06 09:01 | 44.61564 | 26.31272 | 9998 ft | 249 kts | 20° |
| 2026-05-06 09:01 | 44.63237 | 26.32029 | 10794 ft | 259 kts | 17° |
| 2026-05-06 09:02 | 44.65085 | 26.32771 | 11112 ft | 295 kts | 16° |
| 2026-05-06 09:02 | 44.67140 | 26.33575 | 11797 ft | 313 kts | 16° |
| 2026-05-06 09:02 | 44.69253 | 26.34404 | 12874 ft | 318 kts | 16° |
| 2026-05-06 09:02 | 44.71402 | 26.35257 | 13990 ft | 324 kts | 16° |
| 2026-05-06 09:03 | 44.73583 | 26.36133 | 15042 ft | 328 kts | 17° |
| 2026-05-06 09:03 | 44.75783 | 26.37024 | 16147 ft | 331 kts | 17° |
| 2026-05-06 09:03 | 44.78012 | 26.37933 | 17227 ft | 336 kts | 16° |
| 2026-05-06 09:03 | 44.80275 | 26.38860 | 18274 ft | 341 kts | 16° |
| 2026-05-06 09:04 | 44.82575 | 26.39805 | 19192 ft | 347 kts | 16° |
| 2026-05-06 09:04 | 44.84904 | 26.40765 | 20113 ft | 352 kts | 17° |
| 2026-05-06 09:04 | 44.87268 | 26.41741 | 21040 ft | 356 kts | 17° |
| 2026-05-06 09:04 | 44.89666 | 26.42732 | 21945 ft | 362 kts | 17° |
| 2026-05-06 09:05 | 44.92087 | 26.43734 | 22924 ft | 363 kts | 17° |
| 2026-05-06 09:05 | 44.94502 | 26.44735 | 24071 ft | 359 kts | 17° |
| 2026-05-06 09:05 | 44.96884 | 26.45723 | 25157 ft | 354 kts | 16° |
| 2026-05-06 09:05 | 44.99233 | 26.46698 | 26185 ft | 351 kts | 16° |
| 2026-05-06 09:06 | 45.01573 | 26.47670 | 27153 ft | 350 kts | 15° |
| 2026-05-06 09:06 | 45.03908 | 26.48642 | 28160 ft | 348 kts | 15° |
| 2026-05-06 09:06 | 45.06213 | 26.49602 | 29219 ft | 344 kts | 15° |
| 2026-05-06 09:06 | 45.08504 | 26.50556 | 30217 ft | 342 kts | 15° |
| 2026-05-06 09:07 | 45.10797 | 26.51513 | 30744 ft | 344 kts | 15° |
| 2026-05-06 09:07 | 45.13051 | 26.52453 | 31035 ft | 342 kts | 15° |
| 2026-05-06 09:07 | 45.15374 | 26.53423 | 31033 ft | 344 kts | 15° |
| 2026-05-06 09:08 | 45.19956 | 26.55338 | 31045 ft | 343 kts | 15° |
| 2026-05-06 09:08 | 45.24497 | 26.57241 | 31056 ft | 343 kts | 15° |
| 2026-05-06 09:09 | 45.29074 | 26.59161 | 31050 ft | 343 kts | 15° |
| 2026-05-06 09:09 | 45.33653 | 26.61086 | 31047 ft | 344 kts | 15° |
| 2026-05-06 09:10 | 45.38250 | 26.63020 | 31039 ft | 345 kts | 15° |
| 2026-05-06 09:10 | 45.42846 | 26.64959 | 31045 ft | 344 kts | 15° |
| 2026-05-06 09:11 | 45.47442 | 26.66901 | 31049 ft | 344 kts | 15° |
| 2026-05-06 09:11 | 45.52033 | 26.68844 | 31038 ft | 345 kts | 15° |
| 2026-05-06 09:12 | 45.56630 | 26.70792 | 31039 ft | 345 kts | 15° |
| 2026-05-06 09:12 | 45.61234 | 26.72747 | 31034 ft | 345 kts | 15° |
| 2026-05-06 09:13 | 45.65842 | 26.74707 | 31030 ft | 345 kts | 15° |
| 2026-05-06 09:13 | 45.70442 | 26.76667 | 31034 ft | 345 kts | 15° |
| 2026-05-06 09:14 | 45.75046 | 26.78632 | 31035 ft | 345 kts | 15° |
| 2026-05-06 09:14 | 45.79647 | 26.80599 | 31028 ft | 345 kts | 16° |
| 2026-05-06 09:15 | 45.84253 | 26.82572 | 31036 ft | 345 kts | 15° |
| 2026-05-06 09:15 | 45.88853 | 26.84545 | 31031 ft | 345 kts | 15° |
| 2026-05-06 09:16 | 45.93466 | 26.86527 | 31027 ft | 346 kts | 16° |
| 2026-05-06 09:16 | 45.98071 | 26.88510 | 31021 ft | 346 kts | 16° |
| 2026-05-06 09:17 | 46.02697 | 26.90505 | 30848 ft | 350 kts | 16° |
| 2026-05-06 09:17 | 46.05020 | 26.91509 | 30602 ft | 348 kts | 16° |
| 2026-05-06 09:17 | 46.07337 | 26.92510 | 30358 ft | 347 kts | 16° |
| 2026-05-06 09:17 | 46.09651 | 26.93511 | 29931 ft | 347 kts | 16° |
| 2026-05-06 09:18 | 46.11959 | 26.94510 | 29423 ft | 345 kts | 16° |
| 2026-05-06 09:18 | 46.14260 | 26.95507 | 28864 ft | 345 kts | 16° |
| 2026-05-06 09:18 | 46.16553 | 26.96502 | 28312 ft | 346 kts | 17° |
| 2026-05-06 09:18 | 46.18870 | 26.97507 | 27726 ft | 349 kts | 17° |
| 2026-05-06 09:19 | 46.21204 | 26.98521 | 27124 ft | 353 kts | 17° |
| 2026-05-06 09:19 | 46.23571 | 26.99550 | 26512 ft | 355 kts | 17° |
| 2026-05-06 09:19 | 46.25929 | 27.00576 | 26025 ft | 352 kts | 17° |
| 2026-05-06 09:19 | 46.28232 | 27.01580 | 25531 ft | 350 kts | 17° |
| 2026-05-06 09:20 | 46.30556 | 27.02593 | 25051 ft | 348 kts | 17° |
| 2026-05-06 09:20 | 46.32894 | 27.03614 | 24566 ft | 345 kts | 17° |
| 2026-05-06 09:20 | 46.35159 | 27.04603 | 24081 ft | 343 kts | 18° |
| 2026-05-06 09:20 | 46.37443 | 27.05601 | 23590 ft | 342 kts | 18° |
| 2026-05-06 09:21 | 46.39712 | 27.06594 | 23020 ft | 340 kts | 18° |
| 2026-05-06 09:21 | 46.41969 | 27.07583 | 22493 ft | 337 kts | 18° |
| 2026-05-06 09:21 | 46.44205 | 27.08564 | 22006 ft | 334 kts | 18° |
| 2026-05-06 09:21 | 46.46413 | 27.09532 | 21505 ft | 331 kts | 18° |
| 2026-05-06 09:22 | 46.48604 | 27.10493 | 21037 ft | 327 kts | 18° |
| 2026-05-06 09:22 | 46.50777 | 27.11448 | 20554 ft | 325 kts | 18° |
| 2026-05-06 09:22 | 46.52935 | 27.12397 | 20066 ft | 323 kts | 18° |
| 2026-05-06 09:22 | 46.55072 | 27.13337 | 19596 ft | 320 kts | 18° |
| 2026-05-06 09:23 | 46.57197 | 27.14273 | 19140 ft | 318 kts | 18° |
| 2026-05-06 09:23 | 46.59307 | 27.15203 | 18671 ft | 316 kts | 18° |
| 2026-05-06 09:23 | 46.61416 | 27.16135 | 18185 ft | 315 kts | 18° |
| 2026-05-06 09:23 | 46.63507 | 27.17059 | 17648 ft | 314 kts | 19° |
| 2026-05-06 09:24 | 46.65590 | 27.17979 | 17150 ft | 311 kts | 18° |
| 2026-05-06 09:24 | 46.67652 | 27.18892 | 16687 ft | 308 kts | 19° |
| 2026-05-06 09:24 | 46.69699 | 27.19796 | 16206 ft | 306 kts | 19° |
| 2026-05-06 09:24 | 46.71735 | 27.20698 | 15737 ft | 305 kts | 19° |
| 2026-05-06 09:25 | 46.73755 | 27.21593 | 15281 ft | 303 kts | 19° |
| 2026-05-06 09:25 | 46.75771 | 27.22489 | 14799 ft | 302 kts | 19° |
| 2026-05-06 09:25 | 46.77779 | 27.23386 | 14338 ft | 301 kts | 19° |
| 2026-05-06 09:25 | 46.79783 | 27.24273 | 13895 ft | 300 kts | 19° |
| 2026-05-06 09:26 | 46.81782 | 27.25162 | 13329 ft | 300 kts | 19° |
| 2026-05-06 09:26 | 46.83770 | 27.26046 | 12851 ft | 298 kts | 19° |
| 2026-05-06 09:26 | 46.85749 | 27.26929 | 12370 ft | 297 kts | 19° |
| 2026-05-06 09:26 | 46.87716 | 27.27808 | 11896 ft | 295 kts | 19° |
| 2026-05-06 09:27 | 46.89672 | 27.28679 | 11432 ft | 293 kts | 19° |
| 2026-05-06 09:27 | 46.91618 | 27.29548 | 10970 ft | 292 kts | 18° |
| 2026-05-06 09:27 | 46.93561 | 27.30417 | 10487 ft | 292 kts | 18° |
| 2026-05-06 09:27 | 46.95492 | 27.31281 | 10150 ft | 287 kts | 18° |
| 2026-05-06 09:28 | 46.97373 | 27.32122 | 9789 ft | 282 kts | 17° |
| 2026-05-06 09:28 | 46.99217 | 27.32947 | 9405 ft | 279 kts | 17° |
| 2026-05-06 09:28 | 47.01076 | 27.33767 | 8903 ft | 280 kts | 17° |
| 2026-05-06 09:28 | 47.02972 | 27.34573 | 8441 ft | 281 kts | 16° |
| 2026-05-06 09:29 | 47.04831 | 27.35356 | 8222 ft | 270 kts | 16° |
| 2026-05-06 09:29 | 47.06548 | 27.36080 | 8108 ft | 250 kts | 17° |
| 2026-05-06 09:29 | 47.08173 | 27.36767 | 7983 ft | 231 kts | 17° |
| 2026-05-06 09:29 | 47.09639 | 27.37387 | 7871 ft | 214 kts | 17° |
| 2026-05-06 09:30 | 47.11021 | 27.37972 | 7777 ft | 200 kts | 17° |
| 2026-05-06 09:30 | 47.12319 | 27.38522 | 7651 ft | 188 kts | 17° |
| 2026-05-06 09:30 | 47.13525 | 27.39037 | 7562 ft | 174 kts | 17° |
| 2026-05-06 09:30 | 47.14668 | 27.39524 | 7314 ft | 170 kts | 17° |
| 2026-05-06 09:31 | 47.15806 | 27.40010 | 7016 ft | 170 kts | 17° |
| 2026-05-06 09:31 | 47.16939 | 27.40495 | 6759 ft | 169 kts | 17° |
| 2026-05-06 09:31 | 47.18074 | 27.40979 | 6481 ft | 171 kts | 17° |
| 2026-05-06 09:31 | 47.19211 | 27.41453 | 6235 ft | 170 kts | 12° |
| 2026-05-06 09:32 | 47.20371 | 27.41273 | 5899 ft | 172 kts | 331° |
| 2026-05-06 09:32 | 47.21402 | 27.40454 | 5619 ft | 169 kts | 330° |
| 2026-05-06 09:32 | 47.22450 | 27.39642 | 5270 ft | 170 kts | 330° |
| 2026-05-06 09:32 | 47.23506 | 27.38842 | 4966 ft | 172 kts | 330° |
| 2026-05-06 09:33 | 47.24566 | 27.38059 | 4803 ft | 169 kts | 331° |
| 2026-05-06 09:33 | 47.25626 | 27.37281 | 4590 ft | 171 kts | 330° |
| 2026-05-06 09:33 | 47.26682 | 27.36506 | 4423 ft | 170 kts | 332° |
| 2026-05-06 09:33 | 47.27737 | 27.35751 | 4267 ft | 163 kts | 331° |
| 2026-05-06 09:34 | 47.28828 | 27.35420 | 4259 ft | 168 kts | 12° |
| 2026-05-06 09:34 | 47.29829 | 27.36310 | 4274 ft | 175 kts | 54° |
| 2026-05-06 09:34 | 47.30538 | 27.37753 | 4217 ft | 174 kts | 57° |
| 2026-05-06 09:34 | 47.31240 | 27.39173 | 4102 ft | 168 kts | 57° |
| 2026-05-06 09:35 | 47.31912 | 27.40542 | 4001 ft | 165 kts | 57° |
| 2026-05-06 09:35 | 47.32600 | 27.41924 | 4007 ft | 168 kts | 57° |
| 2026-05-06 09:35 | 47.33290 | 27.43313 | 3790 ft | 167 kts | 57° |
| 2026-05-06 09:35 | 47.33971 | 27.44721 | 3502 ft | 168 kts | 62° |
| 2026-05-06 09:36 | 47.34147 | 27.46313 | 3195 ft | 157 kts | 117° |
| 2026-05-06 09:36 | 47.33433 | 27.47427 | 3117 ft | 154 kts | 149° |
| 2026-05-06 09:36 | 47.32647 | 27.48483 | 3047 ft | 146 kts | 138° |
| 2026-05-06 09:36 | 47.31857 | 27.49465 | 3028 ft | 150 kts | 145° |
| 2026-05-06 09:37 | 47.31027 | 27.50399 | 3012 ft | 150 kts | 147° |
| 2026-05-06 09:37 | 47.30178 | 27.51236 | 2932 ft | 143 kts | 151° |
| 2026-05-06 09:37 | 47.29366 | 27.51899 | 2841 ft | 129 kts | 154° |
| 2026-05-06 09:37 | 47.28638 | 27.52663 | 2674 ft | 126 kts | 149° |
| 2026-05-06 09:38 | 47.27877 | 27.53330 | 2485 ft | 124 kts | 152° |
| 2026-05-06 09:38 | 47.27167 | 27.53973 | 2262 ft | 117 kts | 152° |
| 2026-05-06 09:38 | 47.26486 | 27.54559 | 2154 ft | 113 kts | 151° |
| 2026-05-06 09:38 | 47.25777 | 27.55188 | 2048 ft | 126 kts | 150° |
| 2026-05-06 09:39 | 47.25016 | 27.55827 | 1811 ft | 118 kts | 148° |
| 2026-05-06 09:39 | 47.24354 | 27.56441 | 1720 ft | 112 kts | 148° |
| 2026-05-06 09:39 | 47.23672 | 27.57068 | 1562 ft | 116 kts | 149° |
| 2026-05-06 09:39 | 47.22979 | 27.57677 | 1372 ft | 113 kts | 148° |
| 2026-05-06 09:40 | 47.22313 | 27.58292 | 1238 ft | 112 kts | 150° |
| 2026-05-06 09:40 | 47.21640 | 27.58840 | 1074 ft | 111 kts | 150° |
| 2026-05-06 09:40 | 47.20513 | 27.59873 | 840 ft | 122 kts | 151° |
| 2026-05-06 09:41 | 47.19534 | 27.60748 | 602 ft | 122 kts | 150° |
| 2026-05-06 09:41 | 47.18844 | 27.61362 | 439 ft | 111 kts | 149° |
| 2026-05-06 09:41 | 47.18230 | 27.61909 | 384 ft | 91 kts | 147° |
| 2026-05-06 09:41 | 47.17813 | 27.62282 | 367 ft | 49 kts | 149° |
| 2026-05-06 09:42 | 47.17675 | 27.62404 | 361 ft | 20 kts | 149° |
| 2026-05-06 09:42 | 47.17635 | 27.62440 | 359 ft | 8 kts | 149° |
| 2026-05-06 09:42 | 47.17537 | 27.62527 | 355 ft | 22 kts | 149° |
| 2026-05-06 09:42 | 47.17424 | 27.62628 | 353 ft | 13 kts | 149° |
| 2026-05-06 09:43 | 47.17348 | 27.62582 | 354 ft | 13 kts | 240° |
| 2026-05-06 09:43 | 47.17300 | 27.62473 | 359 ft | 13 kts | 237° |
| 2026-05-06 09:43 | 47.17265 | 27.62373 | 363 ft | 12 kts | 252° |
| 2026-05-06 09:43 | 47.17301 | 27.62274 | 372 ft | 12 kts | 328° |
| 2026-05-06 09:44 | 47.17376 | 27.62206 | 374 ft | 13 kts | 328° |
| 2026-05-06 09:44 | 47.17456 | 27.62137 | 374 ft | 15 kts | 328° |
| 2026-05-06 09:44 | 47.17557 | 27.62053 | 374 ft | 18 kts | 333° |
| 2026-05-06 09:44 | 47.17615 | 27.62002 | 374 ft | 5 kts | 300° |
| 2026-05-06 09:45 | 47.17606 | 27.61952 | 374 ft | 5 kts | 256° |
| 2026-05-06 09:45 | 47.17606 | 27.61930 | 374 ft | 2 kts | 275° |
| 2026-05-06 09:45 | 47.17607 | 27.61924 | 374 ft | 0 kts | 275° |